N3898R KCLW-KCLW
Flight info
| Callsign | N3898R |
|---|---|
| Flight time | N/A |
| Altitude | 5000 |
| Route | TAMPA TRANSITION |
| Aircraft | C172/M-SDE3/L |
Departure
| Time | 2026-04-16 22:33 |
|---|---|
| Airport | Clearwater Air Park (KCLW) |
Arrival
| Time | N/A |
|---|---|
| Airport | Clearwater Air Park (KCLW) |
| Time | Latitude | Longitude | Altitude | Speed | Heading |
|---|---|---|---|---|---|
| 2026-04-16 22:28 | 27.97477 | -82.75702 | 66 ft | 0 kts | 219° |
| 2026-04-16 22:29 | 27.97439 | -82.75702 | 66 ft | 16 kts | 150° |
| 2026-04-16 22:29 | 27.97285 | -82.75617 | 67 ft | 25 kts | 155° |
| 2026-04-16 22:30 | 27.97240 | -82.75597 | 67 ft | 0 kts | 228° |
| 2026-04-16 22:31 | 27.97228 | -82.75620 | 67 ft | 9 kts | 252° |
| 2026-04-16 22:31 | 27.97254 | -82.75652 | 66 ft | 7 kts | 335° |
| 2026-04-16 22:32 | 27.97356 | -82.75709 | 66 ft | 40 kts | 334° |
| 2026-04-16 22:32 | 27.97667 | -82.75877 | 148 ft | 62 kts | 331° |
| 2026-04-16 22:32 | 27.97997 | -82.76059 | 285 ft | 66 kts | 330° |
| 2026-04-16 22:32 | 27.98330 | -82.76255 | 456 ft | 65 kts | 330° |
| 2026-04-16 22:33 | 27.98591 | -82.76473 | 590 ft | 66 kts | 306° |
| 2026-04-16 22:33 | 27.98701 | -82.76900 | 706 ft | 74 kts | 277° |
| 2026-04-16 22:33 | 27.98619 | -82.77336 | 851 ft | 78 kts | 258° |
| 2026-04-16 22:33 | 27.98467 | -82.77850 | 1016 ft | 78 kts | 261° |
| 2026-04-16 22:34 | 27.98335 | -82.78372 | 1159 ft | 81 kts | 259° |
| 2026-04-16 22:34 | 27.98159 | -82.78998 | 1334 ft | 83 kts | 256° |
| 2026-04-16 22:34 | 27.97996 | -82.79517 | 1403 ft | 89 kts | 257° |
| 2026-04-16 22:34 | 27.97843 | -82.80067 | 1532 ft | 91 kts | 258° |
| 2026-04-16 22:35 | 27.97708 | -82.80676 | 1572 ft | 98 kts | 268° |
| 2026-04-16 22:35 | 27.97671 | -82.81516 | 1568 ft | 96 kts | 272° |
| 2026-04-16 22:35 | 27.97659 | -82.82241 | 1568 ft | 95 kts | 273° |
| 2026-04-16 22:35 | 27.97650 | -82.82828 | 1568 ft | 95 kts | 273° |
| 2026-04-16 22:36 | 27.97640 | -82.83516 | 1568 ft | 96 kts | 273° |
| 2026-04-16 22:36 | 27.97632 | -82.84158 | 1568 ft | 96 kts | 273° |
| 2026-04-16 22:36 | 27.97626 | -82.84663 | 1568 ft | 96 kts | 273° |
| 2026-04-16 22:36 | 27.97618 | -82.85328 | 1550 ft | 94 kts | 273° |
| 2026-04-16 22:37 | 27.97564 | -82.86066 | 1453 ft | 96 kts | 265° |
| 2026-04-16 22:37 | 27.97448 | -82.86761 | 1461 ft | 92 kts | 256° |
| 2026-04-16 22:37 | 27.96960 | -82.87199 | 1495 ft | 98 kts | 195° |
| 2026-04-16 22:37 | 27.96371 | -82.87172 | 1509 ft | 99 kts | 181° |
| 2026-04-16 22:38 | 27.95851 | -82.87468 | 1547 ft | 84 kts | 250° |
| 2026-04-16 22:38 | 27.95745 | -82.88100 | 1559 ft | 84 kts | 266° |
| 2026-04-16 22:38 | 27.95648 | -82.88679 | 1519 ft | 91 kts | 256° |
| 2026-04-16 22:38 | 27.95238 | -82.88769 | 1539 ft | 99 kts | 119° |
| 2026-04-16 22:39 | 27.95442 | -82.88594 | 1539 ft | 71 kts | 291° |
| 2026-04-16 22:39 | 27.95390 | -82.89129 | 1536 ft | 81 kts | 265° |
| 2026-04-16 22:39 | 27.95169 | -82.89631 | 1522 ft | 94 kts | 218° |
| 2026-04-16 22:39 | 27.94756 | -82.89671 | 1542 ft | 100 kts | 164° |
| 2026-04-16 22:40 | 27.94412 | -82.89315 | 1527 ft | 104 kts | 116° |
| 2026-04-16 22:40 | 27.94242 | -82.88802 | 1536 ft | 98 kts | 71° |
| 2026-04-16 22:40 | 27.94505 | -82.88870 | 1532 ft | 85 kts | 241° |
| 2026-04-16 22:40 | 27.94078 | -82.88776 | 1534 ft | 99 kts | 115° |
| 2026-04-16 22:41 | 27.93873 | -82.88326 | 1512 ft | 104 kts | 115° |
| 2026-04-16 22:41 | 27.93656 | -82.87875 | 1499 ft | 108 kts | 128° |
| 2026-04-16 22:41 | 27.93461 | -82.88023 | 1527 ft | 75 kts | 5° |
| 2026-04-16 22:41 | 27.93503 | -82.87635 | 1491 ft | 96 kts | 112° |
| 2026-04-16 22:42 | 27.93380 | -82.87337 | 1486 ft | 98 kts | 110° |
| 2026-04-16 22:42 | 27.93222 | -82.86898 | 1458 ft | 96 kts | 110° |
| 2026-04-16 22:42 | 27.93056 | -82.86468 | 1356 ft | 87 kts | 112° |
| 2026-04-16 22:42 | 27.92922 | -82.86140 | 1311 ft | 71 kts | 111° |
| 2026-04-16 22:43 | 27.92788 | -82.85850 | 1168 ft | 71 kts | 113° |
| 2026-04-16 22:43 | 27.92621 | -82.85461 | 1152 ft | 79 kts | 110° |
| 2026-04-16 22:43 | 27.92478 | -82.85019 | 1200 ft | 87 kts | 92° |
| 2026-04-16 22:43 | 27.92596 | -82.84592 | 1300 ft | 81 kts | 36° |
| 2026-04-16 22:44 | 27.92990 | -82.84325 | 1415 ft | 82 kts | 20° |
| 2026-04-16 22:44 | 27.93424 | -82.84141 | 1625 ft | 73 kts | 359° |
| 2026-04-16 22:44 | 27.93905 | -82.84118 | 1744 ft | 78 kts | 353° |
| 2026-04-16 22:44 | 27.94448 | -82.84132 | 1870 ft | 83 kts | 353° |
| 2026-04-16 22:45 | 27.94989 | -82.84153 | 1946 ft | 90 kts | 353° |
| 2026-04-16 22:45 | 27.95540 | -82.84177 | 1941 ft | 97 kts | 353° |
| 2026-04-16 22:45 | 27.96110 | -82.84204 | 1940 ft | 100 kts | 353° |
| 2026-04-16 22:45 | 27.96579 | -82.84113 | 1933 ft | 106 kts | 19° |
| 2026-04-16 22:46 | 27.96861 | -82.83883 | 1933 ft | 108 kts | 39° |
| 2026-04-16 22:46 | 27.97029 | -82.83621 | 1933 ft | 111 kts | 56° |
| 2026-04-16 22:46 | 27.97155 | -82.83111 | 1933 ft | 114 kts | 82° |
| 2026-04-16 22:46 | 27.97096 | -82.82621 | 1933 ft | 116 kts | 106° |
| 2026-04-16 22:47 | 27.96954 | -82.82265 | 1936 ft | 116 kts | 116° |
| 2026-04-16 22:47 | 27.96778 | -82.81915 | 1937 ft | 116 kts | 119° |
| 2026-04-16 22:47 | 27.96489 | -82.81373 | 1937 ft | 116 kts | 120° |
| 2026-04-16 22:47 | 27.96218 | -82.80873 | 1937 ft | 116 kts | 120° |
| 2026-04-16 22:48 | 27.95798 | -82.80101 | 1810 ft | 118 kts | 121° |
| 2026-04-16 22:48 | 27.95317 | -82.79221 | 1615 ft | 118 kts | 121° |
| 2026-04-16 22:48 | 27.94972 | -82.78591 | 1513 ft | 114 kts | 121° |
| 2026-04-16 22:48 | 27.94648 | -82.78002 | 1513 ft | 110 kts | 120° |
| 2026-04-16 22:49 | 27.94319 | -82.77493 | 1495 ft | 108 kts | 140° |
| 2026-04-16 22:49 | 27.93837 | -82.77218 | 1469 ft | 107 kts | 163° |